Time;durP1;ratioP1;P1;durP2;ratioP2;P2;SDS_P1;SDS_P2;PMS_P1;PMS_P2;Temp;Humidity;BMP_temperature;BMP_pressure;BME280_temperature;BME280_humidity;BME280_pressure;Samples;Min_cycle;Max_cycle;Signal;HPM_P1;HPM_P2
2022/01/02 00:00:33;;;;;;;4.00;3.53;;;19.90;69.00;;;;;;4995367;28;20034;-24
2022/01/02 00:03:02;;;;;;;3.88;3.67;;;19.90;69.30;;;;;;4994280;28;20081;-23
2022/01/02 00:05:27;;;;;;;3.55;3.30;;;19.80;69.50;;;;;;4994679;28;20407;-22
2022/01/02 00:07:57;;;;;;;4.03;3.75;;;19.80;69.50;;;;;;4993167;28;20104;-22
2022/01/02 00:10:23;;;;;;;3.60;3.40;;;19.80;69.30;;;;;;4995699;28;20047;-22
2022/01/02 00:12:55;;;;;;;5.32;3.20;;;19.80;69.30;;;;;;4993720;28;20039;-22
2022/01/02 00:15:21;;;;;;;2.90;2.70;;;19.80;69.30;;;;;;4995401;28;20042;-23
2022/01/02 00:17:50;;;;;;;3.28;3.08;;;19.80;69.30;;;;;;4995447;28;20038;-23
2022/01/02 00:20:17;;;;;;;3.50;3.30;;;19.80;69.20;;;;;;4996117;28;20042;-22
2022/01/02 00:22:47;;;;;;;4.70;3.28;;;19.70;69.10;;;;;;4994151;28;20066;-23
2022/01/02 00:25:24;;;;;;;4.32;4.03;;;19.70;69.10;;;;;;4989423;28;20049;-22
2022/01/02 00:27:49;;;;;;;3.55;3.35;;;19.70;69.20;;;;;;4994206;28;20038;-22
2022/01/02 00:30:15;;;;;;;3.17;2.97;;;19.70;69.20;;;;;;4996495;28;20042;-23
2022/01/02 00:32:40;;;;;;;3.55;3.35;;;19.70;69.20;;;;;;4994975;28;20038;-22
2022/01/02 00:35:06;;;;;;;3.10;2.90;;;19.70;69.20;;;;;;4977893;28;20046;-22
2022/01/02 00:37:32;;;;;;;3.75;3.35;;;19.70;69.20;;;;;;4996366;28;20076;-23
2022/01/02 00:39:57;;;;;;;2.85;2.65;;;19.70;69.20;;;;;;4995790;28;20050;-22
2022/01/02 00:42:40;;;;;;;3.28;2.95;;;19.70;69.10;;;;;;4995688;28;20595;-23
2022/01/02 00:45:28;;;;;;;3.30;3.10;;;19.70;69.10;;;;;;4995148;28;20507;-22
2022/01/02 00:48:13;;;;;;;2.70;2.60;;;19.60;69.20;;;;;;5005667;28;20054;-22
2022/01/02 00:50:42;;;;;;;3.33;3.03;;;19.60;69.20;;;;;;4994334;28;20061;-22
2022/01/02 00:53:09;;;;;;;3.20;3.00;;;19.60;69.00;;;;;;4993744;28;20069;-22
2022/01/02 00:55:35;;;;;;;2.92;2.72;;;19.60;69.10;;;;;;4999554;28;20050;-22
2022/01/02 00:58:05;;;;;;;2.90;2.80;;;19.60;69.10;;;;;;4995104;28;20042;-22
2022/01/02 01:00:31;;;;;;;3.03;2.83;;;19.60;69.10;;;;;;4996253;28;20046;-23
2022/01/02 01:02:59;;;;;;;3.10;2.90;;;19.60;69.00;;;;;;4995251;28;20038;-22
2022/01/02 01:05:29;;;;;;;2.85;2.65;;;19.60;69.00;;;;;;4995961;28;20046;-23
2022/01/02 01:07:56;;;;;;;2.75;2.55;;;19.60;69.00;;;;;;4993968;28;20038;-22
2022/01/02 01:10:23;;;;;;;3.25;2.95;;;19.60;69.00;;;;;;4995978;28;20077;-22
2022/01/02 01:12:52;;;;;;;2.88;2.78;;;19.60;69.10;;;;;;4994795;28;20080;-23
2022/01/02 01:15:17;;;;;;;3.58;3.28;;;19.60;69.00;;;;;;4995283;28;20518;-22
2022/01/02 01:17:43;;;;;;;2.28;2.17;;;19.50;68.90;;;;;;4995733;28;20038;-23
2022/01/02 01:20:13;;;;;;;2.30;2.20;;;19.60;69.00;;;;;;4994041;28;20058;-22
2022/01/02 01:22:39;;;;;;;3.10;2.90;;;19.50;69.00;;;;;;4995961;28;20541;-23
2022/01/02 01:25:07;;;;;;;3.08;2.60;;;19.50;69.00;;;;;;4994880;28;20046;-22
2022/01/02 01:27:33;;;;;;;2.83;2.72;;;19.50;69.20;;;;;;4995581;28;20166;-22
2022/01/02 01:29:59;;;;;;;2.92;2.72;;;19.50;69.00;;;;;;5004955;28;20078;-22
2022/01/02 01:32:24;;;;;;;2.88;2.63;;;19.50;69.00;;;;;;5015290;28;20124;-22
2022/01/02 01:34:50;;;;;;;2.88;2.67;;;19.50;69.00;;;;;;5006867;28;20496;-22
2022/01/02 01:37:16;;;;;;;2.60;2.40;;;19.50;69.00;;;;;;5007206;28;20045;-23
2022/01/02 01:39:41;;;;;;;2.50;2.40;;;19.50;69.00;;;;;;5007038;28;20125;-22
2022/01/02 01:42:10;;;;;;;2.92;2.72;;;19.40;68.90;;;;;;4994134;28;20069;-22
2022/01/02 01:44:51;;;;;;;2.92;2.72;;;19.40;69.00;;;;;;5002560;28;20085;-23
2022/01/02 01:47:17;;;;;;;2.30;2.20;;;19.50;69.10;;;;;;4995061;28;20077;-23
2022/01/02 01:49:43;;;;;;;2.65;2.42;;;19.50;69.00;;;;;;4995691;28;20057;-23
2022/01/02 01:52:08;;;;;;;2.10;2.00;;;19.50;69.00;;;;;;4995040;28;20046;-23
2022/01/02 01:54:34;;;;;;;2.50;2.40;;;19.40;68.90;;;;;;4994501;28;20628;-24
2022/01/02 01:56:59;;;;;;;2.45;2.35;;;19.50;68.80;;;;;;4993981;28;20069;-24
2022/01/02 01:59:25;;;;;;;2.30;2.20;;;19.50;68.90;;;;;;4993257;28;20057;-23
2022/01/02 02:01:50;;;;;;;2.35;2.25;;;19.50;69.00;;;;;;4994684;28;20065;-22
2022/01/02 02:04:16;;;;;;;2.40;2.30;;;19.40;68.90;;;;;;4998467;28;20053;-23
2022/01/02 02:06:43;;;;;;;1.90;1.80;;;19.40;69.00;;;;;;5002153;28;20062;-24
2022/01/02 02:09:08;;;;;;;1.88;1.77;;;19.40;69.10;;;;;;5014798;28;20057;-22
2022/01/02 02:11:36;;;;;;;2.35;2.25;;;19.40;69.20;;;;;;5010773;28;20554;-23
2022/01/02 02:14:04;;;;;;;2.20;2.10;;;19.30;69.00;;;;;;4997230;28;20050;-22
2022/01/02 02:16:30;;;;;;;2.33;2.17;;;19.40;69.10;;;;;;4999084;28;20050;-23
2022/01/02 02:18:55;;;;;;;2.42;2.28;;;19.40;69.20;;;;;;4996230;28;20046;-24
2022/01/02 02:21:34;;;;;;;2.30;2.20;;;19.40;69.00;;;;;;4998852;28;20109;-22
2022/01/02 02:24:00;;;;;;;2.30;2.20;;;19.40;69.00;;;;;;4998312;28;20050;-22
2022/01/02 02:26:25;;;;;;;1.98;1.88;;;19.30;69.00;;;;;;4998806;28;20042;-23
2022/01/02 02:28:51;;;;;;;2.20;2.08;;;19.40;69.00;;;;;;4998754;28;20053;-23
2022/01/02 02:31:17;;;;;;;2.15;2.05;;;19.40;69.00;;;;;;4997352;28;20097;-23
2022/01/02 02:33:42;;;;;;;2.20;2.10;;;19.30;69.00;;;;;;5011551;28;20042;-23
2022/01/02 02:36:08;;;;;;;2.28;2.17;;;19.30;69.00;;;;;;4999033;28;20145;-23
2022/01/02 02:38:34;;;;;;;2.15;2.05;;;19.30;69.10;;;;;;4998640;28;20399;-23
2022/01/02 02:40:59;;;;;;;2.25;2.15;;;19.30;69.10;;;;;;4997671;28;20105;-22
2022/01/02 02:51:59;;;;;;;1.90;1.80;;;19.30;69.20;;;;;;5010922;28;20049;-23
2022/01/02 02:54:26;;;;;;;1.80;1.70;;;19.30;69.20;;;;;;4996361;28;20046;-22
2022/01/02 02:59:21;;;;;;;2.00;1.90;;;19.30;69.00;;;;;;5002984;28;20438;-22
2022/01/02 03:01:46;;;;;;;1.92;1.83;;;19.20;69.20;;;;;;4991134;28;20035;-22
2022/01/02 03:04:12;;;;;;;1.90;1.80;;;19.20;69.30;;;;;;4983029;28;20069;-22
2022/01/02 03:06:38;;;;;;;1.83;1.73;;;19.20;69.30;;;;;;4984520;28;20042;-22
2022/01/02 03:09:12;;;;;;;1.98;1.88;;;19.20;69.30;;;;;;5003052;28;20065;-22
2022/01/02 03:11:39;;;;;;;2.20;2.10;;;19.20;69.30;;;;;;4997104;28;20046;-22
2022/01/02 03:14:05;;;;;;;1.70;1.60;;;19.20;69.40;;;;;;4992372;28;20471;-23
2022/01/02 03:16:31;;;;;;;1.90;1.80;;;19.20;69.40;;;;;;4993924;28;20129;-23
2022/01/02 03:18:56;;;;;;;1.85;1.75;;;19.20;69.40;;;;;;4996755;28;20080;-24
2022/01/02 03:21:22;;;;;;;2.10;2.00;;;19.20;69.20;;;;;;4997572;28;20066;-23
2022/01/02 03:23:48;;;;;;;1.77;1.67;;;19.20;69.40;;;;;;4997259;28;20104;-23
2022/01/02 03:26:14;;;;;;;2.85;2.08;;;19.10;69.50;;;;;;4996740;28;20050;-24
2022/01/02 03:28:39;;;;;;;2.10;2.00;;;19.20;69.40;;;;;;4991921;28;20085;-24
2022/01/02 03:31:05;;;;;;;1.95;1.85;;;19.20;69.50;;;;;;4997006;28;20042;-23
2022/01/02 03:33:31;;;;;;;2.08;1.98;;;19.10;69.60;;;;;;4997043;28;20045;-23
2022/01/02 03:35:56;;;;;;;1.80;1.70;;;19.10;69.60;;;;;;4995873;28;20093;-22
2022/01/02 03:38:22;;;;;;;1.88;1.77;;;19.10;69.80;;;;;;4996851;28;20507;-22
2022/01/02 03:40:47;;;;;;;2.05;1.95;;;19.10;69.90;;;;;;4997527;28;20096;-23
2022/01/02 03:43:13;;;;;;;2.05;1.95;;;19.10;69.80;;;;;;4996642;28;20097;-23
2022/01/02 03:45:39;;;;;;;2.03;1.83;;;19.10;69.90;;;;;;4997503;28;20058;-23
2022/01/02 03:48:04;;;;;;;1.70;1.60;;;19.10;70.00;;;;;;4996598;28;20034;-23
2022/01/02 03:50:30;;;;;;;1.67;1.58;;;19.10;69.90;;;;;;4996851;28;20038;-22
2022/01/02 03:52:55;;;;;;;1.65;1.55;;;19.10;70.00;;;;;;4997244;28;20069;-23
2022/01/02 03:55:21;;;;;;;1.83;1.73;;;19.10;69.80;;;;;;4996339;28;20141;-22
2022/01/02 03:57:47;;;;;;;1.77;1.67;;;19.10;69.90;;;;;;4997060;28;20038;-23
2022/01/02 04:00:13;;;;;;;1.83;1.63;;;19.10;70.00;;;;;;4996598;28;20495;-23
2022/01/02 04:02:39;;;;;;;1.90;1.80;;;19.10;70.00;;;;;;5005137;28;20426;-23
2022/01/02 04:05:08;;;;;;;1.42;1.40;;;19.10;70.00;;;;;;5001516;28;20042;-23
2022/01/02 04:07:34;;;;;;;1.50;1.40;;;19.00;69.90;;;;;;4996065;28;20050;-23
2022/01/02 04:10:05;;;;;;;1.48;1.38;;;19.00;69.90;;;;;;4994930;28;20056;-22
2022/01/02 04:12:31;;;;;;;1.40;1.30;;;19.00;70.00;;;;;;4996632;28;20042;-23
2022/01/02 04:14:56;;;;;;;1.48;1.40;;;19.00;69.90;;;;;;4994509;28;20054;-23
2022/01/02 04:17:23;;;;;;;1.55;1.45;;;19.00;70.00;;;;;;4993507;28;20071;-23
2022/01/02 04:19:49;;;;;;;1.42;1.33;;;19.00;70.10;;;;;;4995453;28;20116;-23
2022/01/02 04:22:15;;;;;;;1.90;1.80;;;19.00;70.10;;;;;;4995772;28;20066;-22
2022/01/02 04:24:41;;;;;;;1.45;1.35;;;19.00;70.00;;;;;;4996703;28;20564;-23
2022/01/02 04:27:06;;;;;;;1.70;1.60;;;19.00;70.00;;;;;;4996026;28;20038;-22
2022/01/02 04:29:32;;;;;;;1.42;1.33;;;19.00;70.00;;;;;;4990736;28;20042;-23
2022/01/02 04:31:57;;;;;;;1.70;1.60;;;19.00;70.10;;;;;;4995520;28;20042;-23
2022/01/02 04:34:23;;;;;;;1.58;1.48;;;19.00;70.00;;;;;;4995520;28;20046;-23
2022/01/02 04:36:48;;;;;;;1.60;1.50;;;19.00;70.00;;;;;;4996499;28;20519;-23
2022/01/02 04:39:14;;;;;;;1.50;1.40;;;19.00;70.10;;;;;;4995802;28;20053;-23
2022/01/02 04:41:40;;;;;;;1.50;1.40;;;19.00;70.10;;;;;;4996214;28;20066;-22
2022/01/02 04:44:05;;;;;;;1.65;1.45;;;19.00;70.10;;;;;;4995216;28;20058;-24
2022/01/02 04:46:31;;;;;;;1.35;1.25;;;19.00;70.10;;;;;;4996312;28;20049;-23
2022/01/02 04:48:56;;;;;;;2.05;1.20;;;19.00;70.00;;;;;;4995626;28;20050;-23
2022/01/02 04:51:22;;;;;;;1.00;1.00;;;19.00;70.10;;;;;;4995499;28;20057;-23
2022/01/02 04:53:49;;;;;;;1.42;1.33;;;19.00;70.10;;;;;;4996278;28;20052;-23
2022/01/02 04:56:15;;;;;;;1.52;1.42;;;19.00;70.10;;;;;;4995143;28;20049;-23
2022/01/02 04:58:40;;;;;;;1.30;1.30;;;19.00;70.10;;;;;;4995899;28;20499;-24
2022/01/02 05:01:11;;;;;;;1.45;1.35;;;19.00;70.00;;;;;;4995667;28;20053;-23
2022/01/02 05:03:40;;;;;;;1.80;1.70;;;19.00;70.00;;;;;;4995469;28;20050;-23
2022/01/02 05:06:07;;;;;;;1.60;1.50;;;18.90;70.00;;;;;;5012550;28;20137;-23
2022/01/02 05:08:32;;;;;;;1.50;1.40;;;18.90;70.10;;;;;;5015228;28;20108;-23
2022/01/02 05:10:58;;;;;;;1.25;1.23;;;18.90;70.00;;;;;;5015668;28;20046;-23
2022/01/02 05:13:23;;;;;;;1.35;1.25;;;18.90;70.10;;;;;;5015002;28;20056;-23
2022/01/02 05:15:49;;;;;;;1.40;1.30;;;18.90;70.10;;;;;;5015635;28;20042;-23
2022/01/02 05:18:15;;;;;;;1.23;1.20;;;19.00;70.10;;;;;;5013684;28;20052;-23
2022/01/02 05:20:44;;;;;;;1.38;1.27;;;18.90;70.10;;;;;;5015520;28;20100;-23
2022/01/02 05:23:10;;;;;;;1.50;1.40;;;18.90;70.10;;;;;;5014667;28;20075;-23
2022/01/02 05:25:35;;;;;;;1.38;1.27;;;18.90;70.10;;;;;;5015478;28;20069;-22
2022/01/02 05:28:01;;;;;;;1.40;1.30;;;18.90;70.00;;;;;;5015144;28;20069;-23
2022/01/02 05:30:26;;;;;;;1.20;1.10;;;18.90;70.10;;;;;;5014914;28;20400;-23
2022/01/02 05:32:52;;;;;;;1.00;1.00;;;18.90;70.10;;;;;;5014753;28;20038;-23
2022/01/02 05:35:17;;;;;;;1.40;1.30;;;18.90;70.00;;;;;;5014794;28;20041;-23
2022/01/02 05:37:43;;;;;;;2.15;1.40;;;18.90;70.00;;;;;;5015580;28;20072;-23
2022/01/02 05:40:09;;;;;;;1.58;1.48;;;18.90;70.20;;;;;;5014802;28;20489;-24
2022/01/02 05:42:35;;;;;;;1.30;1.20;;;18.90;70.20;;;;;;5015655;28;20053;-23
2022/01/02 05:45:00;;;;;;;1.30;1.20;;;18.90;70.00;;;;;;5019337;28;20073;-23
2022/01/02 05:47:26;;;;;;;1.40;1.30;;;18.90;70.10;;;;;;5018161;28;20050;-23
2022/01/02 05:49:51;;;;;;;1.27;1.20;;;18.90;70.10;;;;;;5019275;28;20041;-23
2022/01/02 05:52:17;;;;;;;1.10;1.00;;;18.90;70.10;;;;;;5018256;28;20058;-23
2022/01/02 05:54:42;;;;;;;1.20;1.20;;;18.90;70.00;;;;;;5018422;28;20068;-23
2022/01/02 05:57:08;;;;;;;1.38;1.27;;;18.90;70.00;;;;;;5018043;28;20050;-22
2022/01/02 05:59:35;;;;;;;1.10;1.10;;;18.90;70.00;;;;;;5018946;28;20045;-23
2022/01/02 06:02:00;;;;;;;0.90;0.90;;;18.90;70.10;;;;;;5018731;28;20049;-23
2022/01/02 06:04:27;;;;;;;1.25;1.15;;;18.90;70.20;;;;;;5018143;28;20046;-22
2022/01/02 06:06:53;;;;;;;1.20;1.20;;;18.90;70.10;;;;;;5018469;28;20061;-23
2022/01/02 06:09:18;;;;;;;1.10;1.10;;;18.90;70.10;;;;;;5017331;28;20422;-23
2022/01/02 06:11:44;;;;;;;1.00;1.00;;;18.90;70.10;;;;;;5018108;28;20056;-23
2022/01/02 06:14:09;;;;;;;1.00;1.00;;;18.90;70.10;;;;;;5018156;28;20552;-22
2022/01/02 06:16:35;;;;;;;1.02;1.02;;;18.80;70.20;;;;;;5017221;28;20077;-22
2022/01/02 06:19:01;;;;;;;1.10;1.10;;;18.80;70.20;;;;;;5016738;28;20041;-23
2022/01/02 06:21:26;;;;;;;1.23;1.15;;;18.90;70.20;;;;;;5016138;28;20813;-23
2022/01/02 06:23:52;;;;;;;0.90;0.90;;;18.80;70.10;;;;;;5016830;28;20050;-23
2022/01/02 06:26:18;;;;;;;1.52;1.40;;;18.90;70.10;;;;;;5017382;28;20112;-23
2022/01/02 06:28:43;;;;;;;0.90;0.90;;;18.80;70.10;;;;;;5018379;28;20042;-23
2022/01/02 06:31:09;;;;;;;0.90;0.90;;;18.80;70.50;;;;;;5017901;28;20050;-22
2022/01/02 06:33:35;;;;;;;0.80;0.80;;;18.80;70.10;;;;;;5018344;28;20042;-23
2022/01/02 06:36:00;;;;;;;1.00;1.00;;;18.80;70.20;;;;;;5018467;28;20129;-23
2022/01/02 06:38:26;;;;;;;0.80;0.80;;;18.80;70.20;;;;;;5016970;28;20078;-23
2022/01/02 06:40:52;;;;;;;1.48;1.38;;;18.90;70.20;;;;;;5018292;28;20254;-23
2022/01/02 06:43:17;;;;;;;0.77;0.77;;;18.80;70.10;;;;;;5017198;28;20109;-22
2022/01/02 06:45:44;;;;;;;0.82;0.82;;;18.90;70.10;;;;;;5018221;28;20038;-22
2022/01/02 06:48:09;;;;;;;0.80;0.80;;;18.80;70.10;;;;;;5017095;28;20056;-22
2022/01/02 06:50:35;;;;;;;0.95;0.90;;;18.90;70.20;;;;;;5018118;28;20034;-22
2022/01/02 06:53:01;;;;;;;0.90;0.90;;;18.80;70.10;;;;;;5017550;28;20414;-23
2022/01/02 06:55:26;;;;;;;0.80;0.80;;;18.80;70.10;;;;;;5016484;28;20038;-23
2022/01/02 06:57:52;;;;;;;0.88;0.88;;;18.80;70.20;;;;;;5017358;28;20050;-23
2022/01/02 07:00:17;;;;;;;1.00;1.00;;;18.80;70.10;;;;;;5017381;28;20518;-22
2022/01/02 07:02:43;;;;;;;0.90;0.90;;;18.80;70.30;;;;;;5016816;28;20085;-22
2022/01/02 07:05:09;;;;;;;0.80;0.80;;;18.80;70.20;;;;;;5016755;28;20044;-22
2022/01/02 07:07:42;;;;;;;0.95;0.95;;;18.80;70.10;;;;;;5015712;28;20052;-23
2022/01/02 07:10:09;;;;;;;1.13;1.02;;;18.80;70.20;;;;;;5016274;28;20041;-23
2022/01/02 07:12:36;;;;;;;0.90;0.90;;;18.80;70.20;;;;;;4994569;28;20117;-22
2022/01/02 07:15:02;;;;;;;2.50;0.93;;;18.80;70.20;;;;;;4996810;28;20053;-24
2022/01/02 07:17:27;;;;;;;0.70;0.70;;;18.80;70.30;;;;;;4996071;28;20056;-24
2022/01/02 07:19:53;;;;;;;1.02;1.02;;;18.80;70.10;;;;;;4997376;28;20069;-23
2022/01/02 07:22:18;;;;;;;0.90;0.90;;;18.80;70.00;;;;;;4993744;28;20503;-24
2022/01/02 07:24:50;;;;;;;1.15;1.05;;;18.80;70.00;;;;;;5003786;28;20053;-23
2022/01/02 07:27:16;;;;;;;0.68;0.68;;;18.80;70.10;;;;;;4996968;28;20092;-22
2022/01/02 07:29:42;;;;;;;0.80;0.80;;;18.80;70.10;;;;;;5003665;28;20141;-23
2022/01/02 07:32:07;;;;;;;0.70;0.70;;;18.80;70.10;;;;;;4995565;28;20421;-24
2022/01/02 07:34:33;;;;;;;0.75;0.75;;;18.80;70.30;;;;;;4996200;28;20050;-25
2022/01/02 07:36:58;;;;;;;1.13;1.05;;;18.80;70.20;;;;;;4993849;28;20073;-24
2022/01/02 07:39:24;;;;;;;0.85;0.85;;;18.80;70.30;;;;;;4991642;28;20181;-23
2022/01/02 07:41:49;;;;;;;0.75;0.75;;;18.70;70.30;;;;;;4996359;28;20137;-23
2022/01/02 07:44:15;;;;;;;0.90;0.90;;;18.80;70.30;;;;;;4995654;28;20042;-23
2022/01/02 07:46:41;;;;;;;1.15;1.00;;;18.80;70.20;;;;;;4995720;28;20054;-23
2022/01/02 07:49:06;;;;;;;0.50;0.50;;;18.80;70.30;;;;;;4993656;28;20054;-23
2022/01/02 07:51:32;;;;;;;0.60;0.60;;;18.80;70.30;;;;;;4995380;28;20114;-23
2022/01/02 07:53:58;;;;;;;0.50;0.50;;;18.80;70.20;;;;;;4996746;28;20074;-23
2022/01/02 07:56:25;;;;;;;0.90;0.85;;;18.80;70.20;;;;;;4996406;28;20038;-22
2022/01/02 07:58:50;;;;;;;0.70;0.70;;;18.80;70.20;;;;;;4997239;28;20408;-23
2022/01/02 08:01:16;;;;;;;0.70;0.70;;;18.70;70.30;;;;;;4995714;28;20128;-22
2022/01/02 08:03:41;;;;;;;0.70;0.70;;;18.80;70.30;;;;;;5000432;28;20045;-23
2022/01/02 08:06:07;;;;;;;1.10;0.98;;;18.80;70.30;;;;;;5015271;28;20058;-23
2022/01/02 08:08:33;;;;;;;0.75;0.75;;;18.80;70.30;;;;;;5015371;28;20050;-23
2022/01/02 08:10:58;;;;;;;1.05;0.90;;;18.70;70.30;;;;;;5015231;28;20099;-23
2022/01/02 08:13:24;;;;;;;0.60;0.60;;;18.70;70.30;;;;;;5015723;28;20540;-23
2022/01/02 08:15:49;;;;;;;0.57;0.57;;;18.70;70.30;;;;;;5016569;28;20046;-23
2022/01/02 08:18:15;;;;;;;2.10;1.10;;;18.70;70.30;;;;;;5015764;28;20052;-22
2022/01/02 08:20:41;;;;;;;0.93;0.80;;;18.70;70.30;;;;;;5016319;28;20491;-22
2022/01/02 08:23:07;;;;;;;0.80;0.80;;;18.70;70.30;;;;;;5016245;28;20494;-23
2022/01/02 08:25:32;;;;;;;0.60;0.60;;;18.70;70.30;;;;;;5014656;28;20042;-22
2022/01/02 08:27:58;;;;;;;0.65;0.65;;;18.70;70.30;;;;;;5015876;28;20130;-23
2022/01/02 08:30:24;;;;;;;0.65;0.65;;;18.70;70.30;;;;;;5015380;28;20056;-22
2022/01/02 08:32:49;;;;;;;0.60;0.60;;;18.70;70.20;;;;;;5015829;28;20042;-22
2022/01/02 08:35:15;;;;;;;0.73;0.63;;;18.70;70.10;;;;;;5014344;28;20101;-23
2022/01/02 08:37:41;;;;;;;0.70;0.70;;;18.80;70.20;;;;;;5015552;28;20402;-24
2022/01/02 08:40:07;;;;;;;0.60;0.60;;;18.70;70.10;;;;;;5015668;28;20527;-23
2022/01/02 08:42:33;;;;;;;0.82;0.65;;;18.80;69.90;;;;;;5014109;28;20061;-23
2022/01/02 08:44:58;;;;;;;0.60;0.60;;;18.80;69.90;;;;;;5015773;28;20418;-23
2022/01/02 08:47:24;;;;;;;0.70;0.70;;;18.90;69.80;;;;;;4663307;28;10000112;-23
2022/01/02 08:49:50;;;;;;;0.50;0.50;;;18.80;69.80;;;;;;5011902;28;20046;-23
2022/01/02 08:52:15;;;;;;;0.63;0.63;;;18.80;70.10;;;;;;5010752;28;20046;-23
2022/01/02 08:54:41;;;;;;;0.70;0.70;;;18.80;70.30;;;;;;5015814;28;20046;-23
2022/01/02 08:57:07;;;;;;;0.60;0.55;;;18.80;70.30;;;;;;5012441;28;20057;-23
2022/01/02 08:59:32;;;;;;;0.50;0.50;;;18.80;70.30;;;;;;5012145;28;20049;-23
2022/01/02 09:01:58;;;;;;;0.75;0.60;;;18.80;70.40;;;;;;5012048;28;20079;-23
2022/01/02 09:04:23;;;;;;;0.90;0.73;;;18.80;70.40;;;;;;5006603;28;20088;-23
2022/01/02 09:06:49;;;;;;;0.75;0.75;;;18.80;70.30;;;;;;5007221;28;20473;-25
2022/01/02 09:09:14;;;;;;;0.77;0.77;;;18.80;70.30;;;;;;5003426;28;20046;-23
2022/01/02 09:11:40;;;;;;;0.65;0.65;;;18.80;70.10;;;;;;5001391;28;20073;-23
2022/01/02 09:14:06;;;;;;;0.70;0.70;;;18.80;69.90;;;;;;5011879;28;20041;-24
2022/01/02 09:16:33;;;;;;;1.23;0.60;;;18.90;69.90;;;;;;5010102;28;20109;-24
2022/01/02 09:18:59;;;;;;;0.93;0.93;;;18.90;69.90;;;;;;5011379;28;20398;-24
2022/01/02 09:21:24;;;;;;;0.80;0.77;;;18.90;70.00;;;;;;4994910;28;20108;-23
2022/01/02 09:23:50;;;;;;;0.90;0.80;;;18.80;69.90;;;;;;4989518;28;20526;-23
2022/01/02 09:26:15;;;;;;;0.80;0.80;;;18.80;69.80;;;;;;4991372;28;20049;-23
2022/01/02 09:28:41;;;;;;;0.75;0.75;;;18.80;69.90;;;;;;5007534;28;20081;-24
2022/01/02 09:31:07;;;;;;;0.50;0.50;;;18.80;70.00;;;;;;5011998;28;20468;-23
2022/01/02 09:33:32;;;;;;;6.35;3.70;;;18.80;69.80;;;;;;5003336;28;20049;-23
2022/01/02 09:35:58;;;;;;;6.95;3.88;;;18.90;72.00;;;;;;5018273;28;20050;-23
2022/01/02 09:38:23;;;;;;;5.57;3.10;;;18.90;71.00;;;;;;5010851;28;20049;-23
2022/01/02 09:40:49;;;;;;;6.15;3.38;;;18.90;70.80;;;;;;5011573;28;20517;-23
2022/01/02 09:43:16;;;;;;;4.82;3.90;;;19.00;70.90;;;;;;5001174;28;20044;-23
2022/01/02 09:45:45;;;;;;;11.57;4.28;;;18.90;70.80;;;;;;4991527;28;20082;-22
2022/01/02 09:48:10;;;;;;;6.13;4.18;;;19.00;70.80;;;;;;4991205;28;20046;-22
2022/01/02 09:50:38;;;;;;;9.65;5.63;;;18.90;70.80;;;;;;4986367;28;20050;-23
2022/01/02 09:53:03;;;;;;;14.45;5.63;;;18.90;71.60;;;;;;4997103;28;20042;-22
2022/01/02 09:55:29;;;;;;;15.70;6.95;;;18.90;71.60;;;;;;4990826;28;20109;-22
2022/01/02 09:57:59;;;;;;;21.45;7.80;;;18.90;71.60;;;;;;4991289;28;20046;-22
2022/01/02 10:00:24;;;;;;;16.25;7.45;;;18.90;71.70;;;;;;4991433;28;20052;-22
2022/01/02 10:03:09;;;;;;;16.60;7.20;;;19.00;71.50;;;;;;4991604;28;20858;-22
2022/01/02 10:05:53;;;;;;;14.93;6.03;;;18.90;71.50;;;;;;4985128;28;20042;-22
2022/01/02 10:08:27;;;;;;;14.57;7.55;;;18.90;71.30;;;;;;4991228;28;20171;-22
2022/01/02 10:11:23;;;;;;;18.15;6.53;;;18.90;71.40;;;;;;5010673;28;20042;-22
2022/01/02 10:13:51;;;;;;;15.82;5.78;;;18.90;71.40;;;;;;4991015;28;20057;-22
2022/01/02 10:16:28;;;;;;;12.98;5.38;;;18.90;71.10;;;;;;4991657;28;20081;-22
2022/01/02 10:18:55;;;;;;;13.40;5.63;;;18.90;71.00;;;;;;4989873;28;20049;-22
2022/01/02 10:21:31;;;;;;;15.95;6.38;;;19.00;71.70;;;;;;4997716;28;20539;-22
2022/01/02 10:24:14;;;;;;;15.55;5.72;;;18.90;70.80;;;;;;4998619;28;20046;-22
2022/01/02 10:26:40;;;;;;;12.18;5.15;;;18.90;71.50;;;;;;5005804;28;20084;-22
2022/01/02 10:29:15;;;;;;;10.45;4.90;;;19.00;72.00;;;;;;5014219;28;20053;-22
2022/01/02 10:31:41;;;;;;;10.32;4.80;;;19.00;72.50;;;;;;5016056;28;20049;-23
2022/01/02 10:34:06;;;;;;;11.60;4.32;;;19.00;72.80;;;;;;5017100;28;20169;-22
2022/01/02 10:36:37;;;;;;;13.23;4.45;;;19.00;72.80;;;;;;5015037;28;20054;-23
2022/01/02 10:39:19;;;;;;;7.70;3.78;;;19.00;72.80;;;;;;4996722;28;20043;-22
2022/01/02 10:41:50;;;;;;;7.00;3.83;;;19.00;72.20;;;;;;4992212;28;20138;-23
2022/01/02 10:44:31;;;;;;;9.30;4.22;;;19.10;72.30;;;;;;4987149;28;20043;-22
2022/01/02 10:47:15;;;;;;;8.38;3.63;;;19.00;72.20;;;;;;5013795;28;20078;-23
2022/01/02 10:49:50;;;;;;;6.20;3.60;;;19.10;72.30;;;;;;5022749;28;20506;-23
2022/01/02 10:52:20;;;;;;;7.07;3.80;;;19.10;72.40;;;;;;5025900;28;20387;-23
2022/01/02 10:54:46;;;;;;;5.93;4.03;;;19.00;72.20;;;;;;5012786;28;20450;-23
2022/01/02 10:57:12;;;;;;;4.63;3.38;;;19.10;72.60;;;;;;4996249;28;20056;-23
2022/01/02 10:59:39;;;;;;;4.43;3.10;;;19.10;72.20;;;;;;5007139;28;20042;-22
2022/01/02 11:02:04;;;;;;;6.78;3.13;;;19.10;73.00;;;;;;4999659;28;20054;-23
2022/01/02 11:04:32;;;;;;;5.55;3.50;;;19.10;71.90;;;;;;5004423;28;20141;-22
2022/01/02 11:06:59;;;;;;;6.43;3.33;;;19.10;71.60;;;;;;4996534;28;20054;-22
2022/01/02 11:09:25;;;;;;;9.15;3.38;;;19.10;71.80;;;;;;4993307;28;20050;-22
2022/01/02 11:11:50;;;;;;;5.03;3.25;;;19.10;71.50;;;;;;5009679;28;20061;-23
2022/01/02 11:14:16;;;;;;;6.65;3.67;;;19.20;71.50;;;;;;4991330;28;20058;-23
2022/01/02 11:16:41;;;;;;;4.38;2.67;;;19.20;72.30;;;;;;4994856;28;20065;-22
2022/01/02 11:19:10;;;;;;;4.57;2.65;;;19.20;71.90;;;;;;4995146;28;20073;-23
2022/01/02 11:21:35;;;;;;;4.65;2.78;;;19.20;71.70;;;;;;4987098;28;20042;-22
2022/01/02 11:24:10;;;;;;;4.80;2.53;;;19.20;71.90;;;;;;4994307;28;20058;-22
2022/01/02 11:26:59;;;;;;;4.20;2.30;;;19.30;71.70;;;;;;4984828;28;20710;-22
2022/01/02 11:29:26;;;;;;;5.07;2.33;;;19.30;71.30;;;;;;4985591;28;20046;-22
2022/01/02 11:31:52;;;;;;;4.22;1.95;;;19.30;71.10;;;;;;4642855;28;10000325;-22
2022/01/02 11:34:27;;;;;;;3.17;2.13;;;19.40;70.60;;;;;;4990932;28;20042;-22
2022/01/02 11:36:55;;;;;;;2.55;1.73;;;19.30;71.00;;;;;;5012202;28;20142;-22
2022/01/02 11:39:21;;;;;;;2.00;1.55;;;19.30;71.00;;;;;;5007759;28;20054;-22
2022/01/02 11:41:47;;;;;;;2.92;1.63;;;19.30;71.00;;;;;;4999136;28;20070;-22
2022/01/02 11:44:16;;;;;;;2.72;2.13;;;19.30;70.80;;;;;;4992956;28;20124;-22
2022/01/02 11:46:50;;;;;;;2.95;1.95;;;19.40;70.70;;;;;;4992695;28;20081;-22
2022/01/02 11:49:21;;;;;;;2.83;1.80;;;19.40;70.90;;;;;;4995078;28;20046;-22
2022/01/02 11:52:22;;;;;;;2.58;1.95;;;19.30;71.90;;;;;;4996293;28;20114;-21
2022/01/02 11:54:50;;;;;;;2.92;1.55;;;19.30;71.70;;;;;;4975412;28;20053;-22
2022/01/02 11:57:15;;;;;;;1.48;1.33;;;19.40;71.40;;;;;;5001539;28;20052;-23
2022/01/02 11:59:44;;;;;;;2.50;1.67;;;19.40;71.80;;;;;;5012204;28;20470;-23
2022/01/02 12:02:12;;;;;;;2.45;1.52;;;19.40;71.80;;;;;;5014111;28;20057;-22
2022/01/02 12:05:14;;;;;;;1.70;1.60;;;19.40;72.10;;;;;;4999417;28;20050;-22
2022/01/02 12:07:50;;;;;;;2.30;1.63;;;19.30;72.10;;;;;;4994894;28;20046;-22
2022/01/02 12:10:27;;;;;;;2.90;2.30;;;19.30;72.10;;;;;;4991611;28;20122;-22
2022/01/02 12:13:16;;;;;;;2.72;1.33;;;19.20;71.30;;;;;;4986762;28;20046;-22
2022/01/02 12:15:42;;;;;;;3.97;1.90;;;19.20;71.40;;;;;;5011517;28;20045;-23
2022/01/02 12:18:12;;;;;;;5.78;2.20;;;19.20;71.30;;;;;;5016057;28;20045;-22
2022/01/02 12:20:50;;;;;;;3.05;1.55;;;19.20;70.60;;;;;;5017791;28;20041;-22
2022/01/02 12:23:37;;;;;;;5.55;2.45;;;19.20;70.70;;;;;;5012700;28;20057;-22
2022/01/02 12:26:10;;;;;;;4.47;1.80;;;19.10;70.20;;;;;;5012180;28;20559;-22
2022/01/02 12:28:51;;;;;;;5.00;1.95;;;19.10;70.70;;;;;;5011690;28;20132;-23
2022/01/02 12:31:17;;;;;;;4.47;1.70;;;19.10;69.90;;;;;;4981416;28;20038;-22
2022/01/02 12:33:43;;;;;;;6.07;2.20;;;19.20;70.20;;;;;;4978760;28;20459;-21
2022/01/02 12:36:12;;;;;;;4.72;2.30;;;19.30;68.60;;;;;;4992112;28;20085;-21
2022/01/02 12:38:48;;;;;;;4.70;2.20;;;19.20;68.70;;;;;;4992383;28;20511;-22
2022/01/02 12:41:14;;;;;;;4.50;1.85;;;19.20;68.80;;;;;;4992732;28;20507;-22
2022/01/02 12:43:49;;;;;;;6.53;1.77;;;19.20;69.90;;;;;;4990905;28;20046;-22
2022/01/02 12:46:14;;;;;;;;;;;19.20;69.70;;;;;;4987375;28;20042;-22
2022/01/02 12:48:40;;;;;;;10.13;3.15;;;19.20;69.60;;;;;;4998380;28;19920;-22
2022/01/02 12:51:12;;;;;;;8.88;3.10;;;19.20;69.20;;;;;;4992572;28;20101;-22
2022/01/02 12:53:38;;;;;;;12.80;3.53;;;19.20;69.40;;;;;;4991277;28;20053;-22
2022/01/02 12:56:03;;;;;;;10.25;3.38;;;19.10;69.60;;;;;;4984281;28;20050;-22
2022/01/02 12:58:34;;;;;;;9.55;3.38;;;19.10;69.90;;;;;;4991566;28;20061;-21